Time;durP1;ratioP1;P1;durP2;ratioP2;P2;SDS_P1;SDS_P2;PMS_P1;PMS_P2;Temp;Humidity;BMP_temperature;BMP_pressure;BME280_temperature;BME280_humidity;BME280_pressure;Samples;Min_cycle;Max_cycle;Signal;HPM_P1;HPM_P2
2023/02/15 00:03:48;;;;;;;126.00;68.90;;;;;;;2.48;100.00;100728.05;273780;1269;22302;-88
2023/02/15 00:09:50;;;;;;;139.10;69.50;;;;;;;2.44;100.00;100725.91;273631;1269;23284;-88
2023/02/15 00:15:55;;;;;;;132.80;66.70;;;;;;;2.41;100.00;100728.53;273583;1270;22373;-90
2023/02/15 00:21:57;;;;;;;135.00;66.90;;;;;;;2.39;100.00;100721.73;270541;1269;22562;-90
2023/02/15 00:27:59;;;;;;;115.10;58.10;;;;;;;2.38;100.00;100718.65;273619;1270;22413;-91
2023/02/15 00:34:11;;;;;;;122.00;60.40;;;;;;;2.35;100.00;100720.35;273548;1269;22319;-88
2023/02/15 00:40:14;;;;;;;111.50;58.10;;;;;;;2.30;100.00;100720.76;273488;1269;24234;-89
2023/02/15 00:46:16;;;;;;;110.80;58.60;;;;;;;2.28;100.00;100712.45;273599;1269;22216;-89
2023/02/15 00:52:18;;;;;;;119.60;62.10;;;;;;;2.29;100.00;100704.70;273530;1269;22335;-89
2023/02/15 00:58:20;;;;;;;120.10;59.60;;;;;;;2.33;100.00;100696.63;273514;1269;22316;-89
2023/02/15 01:04:22;;;;;;;54.10;29.90;;;;;;;2.38;100.00;100686.71;273780;1269;22336;-89
2023/02/15 01:10:26;;;;;;;37.80;20.90;;;;;;;2.48;100.00;100676.85;273647;1270;22406;-89
2023/02/15 01:16:31;;;;;;;72.60;36.60;;;;;;;2.61;100.00;100672.60;273571;1269;22344;-89
2023/02/15 01:22:34;;;;;;;39.50;21.70;;;;;;;2.61;100.00;100673.95;273498;1269;22893;-89
2023/02/15 01:28:37;;;;;;;51.00;25.70;;;;;;;2.59;100.00;100671.20;273598;1270;22204;-89
2023/02/15 01:34:39;;;;;;;34.20;19.00;;;;;;;2.59;100.00;100666.45;273571;1269;23167;-89
2023/02/15 01:40:41;;;;;;;36.30;20.20;;;;;;;2.64;100.00;100658.84;273641;1269;22344;-90
2023/02/15 01:46:50;;;;;;;43.40;23.60;;;;;;;2.68;100.00;100657.22;273707;1269;22194;-89
2023/02/15 01:53:22;;;;;;;45.20;23.90;;;;;;;2.66;100.00;100652.43;273209;1270;22542;-88
2023/02/15 01:59:24;;;;;;;37.40;20.50;;;;;;;2.63;100.00;100645.80;273526;1269;22498;-89
2023/02/15 02:05:27;;;;;;;38.90;22.70;;;;;;;2.63;100.00;100635.05;273424;1269;22425;-89
2023/02/15 02:11:29;;;;;;;44.30;21.80;;;;;;;2.64;100.00;100632.06;270956;1262;22198;-88
2023/02/15 02:18:00;;;;;;;46.00;23.80;;;;;;;2.63;100.00;100634.63;273504;1270;22226;-89
2023/02/15 02:24:17;;;;;;;42.40;22.00;;;;;;;2.59;100.00;100629.95;273680;1269;22351;-88
2023/02/15 02:30:35;;;;;;;43.60;23.30;;;;;;;2.56;100.00;100621.91;273863;1269;23014;-89
2023/02/15 02:36:48;;;;;;;40.80;21.60;;;;;;;2.57;100.00;100622.83;273671;1270;22177;-89
2023/02/15 02:43:07;;;;;;;45.30;23.20;;;;;;;2.59;100.00;100615.30;272846;1270;22927;-89
2023/02/15 02:49:09;;;;;;;50.90;23.80;;;;;;;2.59;100.00;100606.27;272228;1269;25347;-88
2023/02/15 02:55:31;;;;;;;42.30;22.40;;;;;;;2.59;100.00;100610.16;270239;1269;24300;-88
2023/02/15 03:02:29;;;;;;;38.70;22.00;;;;;;;2.56;100.00;100605.05;269572;1269;22609;-89
2023/02/15 03:08:38;;;;;;;40.50;22.30;;;;;;;2.53;100.00;100605.77;268821;1272;22559;-88
2023/02/15 03:14:45;;;;;;;42.90;22.60;;;;;;;2.51;100.00;100601.25;269654;1269;22336;-88
2023/02/15 03:20:48;;;;;;;43.00;22.40;;;;;;;2.50;100.00;100593.04;273085;1269;23824;-88
2023/02/15 03:26:51;;;;;;;40.70;23.40;;;;;;;2.49;100.00;100586.20;270065;1270;22540;-88
2023/02/15 03:32:54;;;;;;;39.40;22.20;;;;;;;2.45;100.00;100578.38;270064;1269;22520;-89
2023/02/15 03:39:05;;;;;;;46.00;22.10;;;;;;;2.45;100.00;100576.39;269648;1270;22541;-89
2023/02/15 03:45:11;;;;;;;45.70;24.10;;;;;;;2.43;100.00;100574.67;273045;1269;22431;-89
2023/02/15 03:51:34;;;;;;;43.30;22.40;;;;;;;2.42;100.00;100569.98;271683;1269;22600;-88
2023/02/15 04:04:06;;;;;;;43.20;23.50;;;;;;;2.42;100.00;100577.33;272026;1269;26650;-88
2023/02/15 04:16:32;;;;;;;41.50;23.80;;;;;;;2.42;100.00;100574.35;273175;1266;22911;-90
2023/02/15 04:28:54;;;;;;;49.90;25.80;;;;;;;2.41;100.00;100567.54;273137;1269;22298;-89
2023/02/15 04:34:56;;;;;;;49.40;25.40;;;;;;;2.41;100.00;100573.98;271097;1270;22244;-88
2023/02/15 04:40:58;;;;;;;51.70;28.00;;;;;;;2.41;100.00;100572.90;272701;1269;22286;-89
2023/02/15 04:47:00;;;;;;;49.10;27.90;;;;;;;2.42;100.00;100567.86;273409;1268;22422;-88
2023/02/15 04:53:02;;;;;;;53.70;28.20;;;;;;;2.42;100.00;100569.36;273342;1269;22212;-90
2023/02/15 04:59:05;;;;;;;49.90;25.90;;;;;;;2.43;100.00;100573.90;273512;1269;22337;-89
2023/02/15 05:05:12;;;;;;;45.80;23.20;;;;;;;2.41;100.00;100574.80;271873;1270;23375;-90
2023/02/15 05:11:14;;;;;;;43.20;24.20;;;;;;;2.40;100.00;100575.39;273218;1272;22546;-89
2023/02/15 05:17:16;;;;;;;39.10;22.00;;;;;;;2.38;100.00;100571.89;269380;1270;25318;-89
2023/02/15 05:23:18;;;;;;;39.40;22.60;;;;;;;2.34;100.00;100571.77;270312;1273;22546;-90
2023/02/15 05:29:20;;;;;;;42.70;21.80;;;;;;;2.28;100.00;100569.70;270112;1275;23967;-89
2023/02/15 05:35:22;;;;;;;40.70;22.20;;;;;;;2.24;100.00;100572.66;269779;1259;22632;-90
2023/02/15 05:41:25;;;;;;;36.80;20.50;;;;;;;2.21;100.00;100574.73;271260;1272;23298;-89
2023/02/15 05:47:27;;;;;;;38.10;21.80;;;;;;;2.20;100.00;100577.02;272640;1270;22364;-90
2023/02/15 05:53:30;;;;;;;39.90;21.00;;;;;;;2.19;100.00;100584.86;270504;1270;22356;-91
2023/02/15 05:59:32;;;;;;;37.70;21.90;;;;;;;2.14;100.00;100585.76;270601;1273;22718;-89
2023/02/15 06:05:34;;;;;;;39.20;21.20;;;;;;;2.09;100.00;100583.09;270557;1270;22717;-88
2023/02/15 06:11:36;;;;;;;45.30;20.60;;;;;;;2.04;100.00;100577.72;271217;1270;22540;-88
2023/02/15 06:17:38;;;;;;;37.40;20.10;;;;;;;1.99;100.00;100572.30;273207;1270;22530;-89
2023/02/15 06:23:40;;;;;;;37.10;20.50;;;;;;;1.95;100.00;100575.84;272711;1270;22508;-88
2023/02/15 06:29:45;;;;;;;36.40;20.00;;;;;;;1.92;100.00;100577.64;270984;1270;22396;-89
2023/02/15 06:35:47;;;;;;;44.70;21.40;;;;;;;1.92;100.00;100582.98;273728;1269;22377;-89
2023/02/15 06:41:49;;;;;;;36.70;20.00;;;;;;;1.94;100.00;100586.38;272036;1270;22545;-90
2023/02/15 06:47:51;;;;;;;35.40;19.20;;;;;;;1.98;100.00;100590.14;272148;1270;22196;-89
2023/02/15 06:53:53;;;;;;;42.30;21.40;;;;;;;1.99;100.00;100589.48;271168;1269;24397;-89
2023/02/15 06:59:58;;;;;;;36.60;19.40;;;;;;;2.06;100.00;100590.24;272165;1270;22291;-89
2023/02/15 07:06:01;;;;;;;35.70;19.40;;;;;;;2.15;100.00;100588.61;272872;1257;23159;-90
2023/02/15 07:18:27;;;;;;;35.40;20.00;;;;;;;2.35;100.00;100573.87;270613;1269;22573;-89
2023/02/15 07:24:29;;;;;;;36.40;21.10;;;;;;;2.63;100.00;100575.99;271526;1270;22321;-88
2023/02/15 07:30:31;;;;;;;32.40;17.80;;;;;;;2.90;100.00;100571.79;272353;1260;22210;-88
2023/02/15 07:36:33;;;;;;;37.40;19.00;;;;;;;3.10;100.00;100577.84;273277;1268;23024;-90
2023/02/15 07:42:35;;;;;;;34.40;17.20;;;;;;;3.03;100.00;100573.54;272948;1271;22561;-88
2023/02/15 07:48:38;;;;;;;37.00;19.40;;;;;;;3.16;100.00;100565.83;270487;1270;22555;-89
2023/02/15 07:54:40;;;;;;;32.20;18.20;;;;;;;3.54;100.00;100564.21;270486;1262;22554;-90
2023/02/15 08:00:57;;;;;;;29.90;17.30;;;;;;;3.97;100.00;100556.77;269602;1269;23403;-87
2023/02/15 08:06:59;;;;;;;27.90;16.10;;;;;;;4.29;100.00;100556.17;270420;1270;22548;-90
2023/02/15 08:13:01;;;;;;;24.20;15.30;;;;;;;4.54;100.00;100552.54;271841;1270;23427;-90
2023/02/15 08:19:06;;;;;;;24.90;15.40;;;;;;;4.65;100.00;100553.77;271413;1270;22568;-90
2023/02/15 08:25:08;;;;;;;27.10;15.40;;;;;;;4.85;100.00;100548.09;270225;1263;22566;-90
2023/02/15 08:31:12;;;;;;;26.40;16.30;;;;;;;5.08;100.00;100542.31;270591;1269;23087;-89
2023/02/15 08:37:14;;;;;;;29.40;16.90;;;;;;;5.50;100.00;100540.27;271708;1269;22558;-89
2023/02/15 08:43:16;;;;;;;28.50;17.00;;;;;;;5.87;100.00;100535.04;270321;1270;22410;-91
2023/02/15 08:49:20;;;;;;;27.20;15.80;;;;;;;6.13;100.00;100535.20;272055;1270;22790;-90
2023/02/15 08:55:22;;;;;;;26.40;16.10;;;;;;;6.45;100.00;100530.56;272471;1270;22581;-90
2023/02/15 09:01:27;;;;;;;27.00;17.00;;;;;;;6.98;99.94;100523.22;273318;1270;22338;-90
2023/02/15 09:07:30;;;;;;;27.80;17.20;;;;;;;7.45;99.26;100520.10;273523;1269;22573;-89
2023/02/15 09:13:31;;;;;;;24.50;15.80;;;;;;;7.71;98.92;100523.73;272992;1269;22543;-89
2023/02/15 09:19:34;;;;;;;24.40;16.60;;;;;;;8.01;98.36;100512.84;272952;1269;23166;-89
2023/02/15 09:25:39;;;;;;;24.60;15.00;;;;;;;8.27;97.94;100510.25;272176;1269;256389;-91
2023/02/15 09:31:49;;;;;;;23.90;15.50;;;;;;;8.55;96.89;100500.83;273343;1270;22215;-89
2023/02/15 09:37:51;;;;;;;21.40;14.40;;;;;;;8.98;96.52;100491.65;270138;1269;23443;-89
2023/02/15 09:44:20;;;;;;;20.90;14.60;;;;;;;9.28;95.96;100488.50;270459;1270;23446;-91
2023/02/15 09:50:34;;;;;;;25.20;15.70;;;;;;;9.77;95.80;100483.96;270368;1268;22509;-91
2023/02/15 09:56:52;;;;;;;24.40;15.50;;;;;;;9.83;94.54;100482.89;272945;1269;22377;-93
2023/02/15 10:03:14;;;;;;;20.70;14.60;;;;;;;10.03;94.00;100473.45;271251;1270;24411;-91
2023/02/15 10:09:31;;;;;;;21.30;15.30;;;;;;;10.28;93.13;100460.05;269925;1269;22506;-92
2023/02/15 10:15:52;;;;;;;21.50;14.50;;;;;;;10.49;92.55;100456.78;270885;1259;22346;-91
2023/02/15 10:22:13;;;;;;;21.30;14.90;;;;;;;10.99;91.37;100454.95;271478;1269;22694;-91
2023/02/15 10:28:47;;;;;;;20.70;14.40;;;;;;;11.15;90.70;100449.67;271484;1269;22603;-92
2023/02/15 10:35:25;;;;;;;20.00;14.30;;;;;;;11.33;89.77;100439.11;271697;1269;22351;-91
2023/02/15 10:41:38;;;;;;;20.40;14.50;;;;;;;11.49;89.21;100430.34;271106;1269;23426;-91
2023/02/15 10:48:06;;;;;;;21.20;13.80;;;;;;;11.31;87.03;100421.50;269836;1263;25319;-91
2023/02/15 10:54:26;;;;;;;24.50;16.20;;;;;;;11.61;86.27;100415.46;269699;1269;22697;-92
2023/02/15 11:00:42;;;;;;;21.60;14.40;;;;;;;11.72;85.90;100410.05;271384;1266;24290;-90
2023/02/15 11:06:51;;;;;;;24.10;15.80;;;;;;;11.68;85.23;100402.98;270537;1269;22618;-91
2023/02/15 11:12:58;;;;;;;24.00;15.90;;;;;;;11.54;84.67;100398.85;273457;1269;22265;-90
2023/02/15 11:19:18;;;;;;;23.90;16.20;;;;;;;11.40;83.97;100386.45;272953;1269;23171;-90
2023/02/15 11:25:25;;;;;;;23.60;15.50;;;;;;;11.45;84.00;100375.64;272980;1270;22347;-90
2023/02/15 11:31:42;;;;;;;23.80;16.40;;;;;;;11.61;83.46;100373.13;272825;1270;22559;-90
2023/02/15 11:37:48;;;;;;;24.40;16.20;;;;;;;11.79;82.06;100365.29;271931;1269;22725;-89
2023/02/15 11:44:27;;;;;;;25.00;18.00;;;;;;;11.68;81.55;100358.84;272729;1270;22339;-91
2023/02/15 11:50:32;;;;;;;23.10;16.00;;;;;;;11.35;80.64;100351.92;272837;1270;22235;-90
2023/02/15 11:56:34;;;;;;;25.80;17.40;;;;;;;11.00;80.35;100339.73;270821;1269;22546;-89
2023/02/15 12:02:37;;;;;;;27.10;18.20;;;;;;;10.77;79.41;100337.06;270874;1269;22364;-90
2023/02/15 12:08:43;;;;;;;29.60;18.60;;;;;;;10.47;79.70;100332.13;271704;1269;22398;-91
2023/02/15 12:15:06;;;;;;;28.00;17.90;;;;;;;10.44;79.36;100324.25;271961;1270;22412;-88
2023/02/15 12:21:13;;;;;;;30.40;17.90;;;;;;;10.36;79.11;100311.49;271171;1270;23181;-90
2023/02/15 12:27:18;;;;;;;26.00;17.00;;;;;;;10.17;77.67;100297.38;270169;1269;22539;-89
2023/02/15 12:33:27;;;;;;;31.90;19.40;;;;;;;9.91;77.26;100289.93;270581;1270;22367;-89
2023/02/15 12:47:52;;;;;;;27.70;19.30;;;;;;;9.87;77.58;100283.68;270583;1273;22651;-89
2023/02/15 12:54:22;;;;;;;32.60;19.80;;;;;;;9.95;77.28;100284.20;270990;1273;22529;-87
2023/02/15 13:00:28;;;;;;;28.70;19.10;;;;;;;9.75;76.44;100276.41;271112;1273;22557;-90
2023/02/15 13:06:34;;;;;;;31.30;20.40;;;;;;;9.61;76.41;100264.71;269906;1273;22611;-89
2023/02/15 13:12:36;;;;;;;35.10;21.70;;;;;;;9.61;76.19;100260.90;269072;1274;22262;-88
2023/02/15 13:18:41;;;;;;;33.40;22.00;;;;;;;9.68;76.23;100254.29;269734;1273;23507;-89
2023/02/15 13:24:48;;;;;;;34.80;20.80;;;;;;;9.77;76.09;100249.76;269913;1262;26130;-89
2023/02/15 13:30:52;;;;;;;36.10;22.80;;;;;;;9.73;75.77;100242.20;270184;1272;22544;-89
2023/02/15 13:37:14;;;;;;;38.00;22.10;;;;;;;9.72;75.83;100238.62;270944;1274;22409;-89
2023/02/15 13:43:23;;;;;;;36.30;21.30;;;;;;;9.78;75.59;100235.27;270675;1273;24254;-89
2023/02/15 13:49:31;;;;;;;35.80;22.80;;;;;;;9.77;75.33;100231.06;270911;1273;22333;-90
2023/02/15 13:55:57;;;;;;;36.50;22.70;;;;;;;9.67;75.28;100225.71;272716;1273;22272;-90
2023/02/15 14:02:11;;;;;;;42.30;24.00;;;;;;;9.59;75.15;100219.20;272044;1261;22527;-89
2023/02/15 14:08:31;;;;;;;38.00;23.20;;;;;;;9.41;74.79;100212.04;271523;1266;22261;-89
2023/02/15 14:15:02;;;;;;;46.70;26.20;;;;;;;9.24;74.94;100208.55;272175;1261;22570;-89
2023/02/15 14:21:19;;;;;;;41.50;23.30;;;;;;;9.14;74.80;100210.45;270574;1269;22612;-89
2023/02/15 14:27:43;;;;;;;62.80;34.60;;;;;;;9.03;74.71;100206.30;272514;1266;23413;-89
2023/02/15 14:33:56;;;;;;;43.70;25.80;;;;;;;8.91;74.79;100199.80;273409;1269;23678;-89
2023/02/15 14:46:36;;;;;;;43.00;23.30;;;;;;;8.69;74.93;100191.23;273477;1265;22327;-89
2023/02/15 14:53:16;;;;;;;40.80;23.30;;;;;;;8.54;75.14;100188.31;272486;1269;23211;-90
2023/02/15 14:59:20;;;;;;;41.30;24.30;;;;;;;8.38;75.22;100182.46;273293;1269;22977;-90
2023/02/15 15:05:33;;;;;;;40.30;24.90;;;;;;;8.23;75.23;100178.53;273566;1268;22363;-89
2023/02/15 15:11:48;;;;;;;42.10;25.50;;;;;;;8.08;75.31;100175.24;272933;1269;22369;-90
2023/02/15 15:18:04;;;;;;;45.90;24.80;;;;;;;7.92;75.49;100175.27;273263;1271;22338;-89
2023/02/15 15:24:06;;;;;;;43.60;23.80;;;;;;;7.75;75.93;100169.18;273271;1270;23149;-89
2023/02/15 15:30:14;;;;;;;45.80;25.60;;;;;;;7.58;76.33;100168.78;273034;1270;22856;-89
2023/02/15 15:36:33;;;;;;;43.60;24.00;;;;;;;7.40;76.64;100164.84;273075;1269;22337;-90
2023/02/15 15:42:51;;;;;;;47.70;26.20;;;;;;;7.21;77.04;100157.55;272715;1270;22363;-90
2023/02/15 15:48:54;;;;;;;55.40;27.60;;;;;;;6.98;77.32;100155.34;272752;1259;22419;-90
2023/02/15 15:55:05;;;;;;;53.60;28.70;;;;;;;6.74;77.85;100156.81;273330;1269;23002;-89
2023/02/15 16:01:11;;;;;;;46.80;25.80;;;;;;;6.53;78.19;100151.91;273165;1270;22411;-90
2023/02/15 16:07:19;;;;;;;49.50;25.40;;;;;;;6.34;78.50;100156.33;273456;1269;23029;-89
2023/02/15 16:13:21;;;;;;;53.50;27.70;;;;;;;6.10;78.82;100156.45;273490;1259;22703;-89
2023/02/15 16:19:27;;;;;;;54.80;29.80;;;;;;;5.92;79.16;100159.45;273324;1270;22433;-88
2023/02/15 16:25:52;;;;;;;61.90;30.70;;;;;;;5.73;79.57;100162.50;271995;1269;22099;-88
2023/02/15 16:32:21;;;;;;;70.20;31.30;;;;;;;5.56;79.98;100164.29;272188;1268;22242;-89
2023/02/15 16:38:41;;;;;;;61.00;31.00;;;;;;;5.40;80.53;100156.42;271132;1269;23181;-88
2023/02/15 16:44:45;;;;;;;63.40;31.80;;;;;;;5.23;81.13;100154.88;270284;1268;23896;-89
2023/02/15 16:50:50;;;;;;;60.20;31.30;;;;;;;5.06;81.65;100158.11;273048;1269;22326;-89
2023/02/15 16:56:52;;;;;;;64.40;29.90;;;;;;;4.84;82.17;100155.05;272107;1270;25418;-89
2023/02/15 17:02:54;;;;;;;65.20;31.80;;;;;;;4.63;82.57;100155.31;265901;1262;10001585;-89
2023/02/15 17:09:05;;;;;;;66.30;33.60;;;;;;;4.41;83.19;100151.72;273546;1272;23059;-89
2023/02/15 17:15:25;;;;;;;71.90;34.40;;;;;;;4.18;83.39;100150.23;273379;1270;22338;-89
2023/02/15 17:21:32;;;;;;;77.70;39.10;;;;;;;4.00;83.94;100151.02;273090;1270;23776;-89
2023/02/15 17:27:34;;;;;;;85.60;40.10;;;;;;;3.86;84.51;100153.48;273297;1270;22313;-89
2023/02/15 17:33:40;;;;;;;92.50;43.70;;;;;;;3.70;84.94;100154.79;273516;1269;22349;-89
2023/02/15 17:39:42;;;;;;;91.10;46.20;;;;;;;3.49;85.21;100153.84;273012;1270;22227;-89
2023/02/15 17:45:48;;;;;;;104.00;52.90;;;;;;;3.24;85.56;100153.77;273247;1270;22318;-89
2023/02/15 17:51:49;;;;;;;127.50;60.40;;;;;;;2.99;85.76;100151.74;273226;1270;22310;-88
2023/02/15 17:57:51;;;;;;;155.30;68.90;;;;;;;2.74;86.09;100141.84;272355;1269;22656;-89
2023/02/15 18:16:41;;;;;;;138.50;63.50;;;;;;;2.12;87.01;100135.84;273326;1269;22214;-89
2023/02/15 18:22:45;;;;;;;131.80;60.40;;;;;;;1.79;86.94;100137.91;273354;1269;22336;-88
2023/02/15 18:28:47;;;;;;;133.00;61.70;;;;;;;1.54;87.53;100140.00;273561;1269;23423;-89
2023/02/15 18:34:51;;;;;;;126.30;57.30;;;;;;;1.38;88.29;100137.69;272501;1269;22207;-89
2023/02/15 18:40:54;;;;;;;109.40;52.30;;;;;;;1.29;88.93;100136.18;273184;1270;22907;-88
2023/02/15 18:46:56;;;;;;;115.50;54.30;;;;;;;1.24;89.16;100135.64;272960;1270;22338;-88
2023/02/15 18:52:58;;;;;;;129.30;58.30;;;;;;;1.09;88.93;100133.48;273561;1270;22239;-89
2023/02/15 18:59:00;;;;;;;130.50;56.00;;;;;;;0.91;89.22;100132.97;273233;1270;22223;-88
2023/02/15 19:05:02;;;;;;;127.10;55.40;;;;;;;0.68;89.48;100131.77;273404;1269;23204;-89
2023/02/15 19:11:04;;;;;;;130.80;59.10;;;;;;;0.51;89.90;100131.53;272836;1269;22195;-89
2023/02/15 19:17:13;;;;;;;111.60;48.20;;;;;;;0.37;90.18;100129.55;273508;1270;23196;-89
2023/02/15 19:23:20;;;;;;;108.90;47.80;;;;;;;0.30;90.75;100125.98;271772;1270;22331;-88
2023/02/15 19:29:26;;;;;;;127.30;53.50;;;;;;;0.26;91.04;100124.84;273184;1260;22227;-88
2023/02/15 19:35:30;;;;;;;117.70;50.10;;;;;;;0.14;90.87;100121.20;273494;1269;23819;-88
2023/02/15 19:41:33;;;;;;;89.70;41.40;;;;;;;0.07;91.40;100124.91;273466;1263;22395;-88
2023/02/15 19:47:35;;;;;;;107.30;49.20;;;;;;;-0.01;91.38;100123.23;273304;1269;22302;-88
2023/02/15 19:53:36;;;;;;;111.10;47.90;;;;;;;-0.13;91.27;100116.15;273332;1269;22341;-87
2023/02/15 19:59:39;;;;;;;118.20;52.30;;;;;;;-0.22;91.73;100110.60;272080;1270;23611;-88
2023/02/15 20:05:42;;;;;;;132.30;57.60;;;;;;;-0.37;91.29;100105.61;273452;1270;22213;-88
2023/02/15 20:11:43;;;;;;;117.50;52.50;;;;;;;-0.50;91.63;100100.78;273454;1269;23324;-87
2023/02/15 20:17:45;;;;;;;108.40;50.10;;;;;;;-0.60;92.33;100105.23;273479;1268;22440;-88
2023/02/15 20:23:47;;;;;;;114.20;50.70;;;;;;;-0.62;92.69;100104.23;273580;1269;22337;-88
2023/02/15 20:29:49;;;;;;;103.90;46.40;;;;;;;-0.64;93.04;100098.31;273302;1270;23717;-88
2023/02/15 20:35:51;;;;;;;115.80;51.40;;;;;;;-0.64;93.33;100091.70;273072;1269;22197;-88
2023/02/15 20:41:53;;;;;;;150.90;70.50;;;;;;;-0.69;93.30;100093.27;273615;1270;22498;-88
2023/02/15 20:47:55;;;;;;;165.80;78.10;;;;;;;-0.82;92.94;100089.46;271846;1270;25497;-88
2023/02/15 20:53:57;;;;;;;164.30;77.50;;;;;;;-0.97;93.08;100094.34;273287;1269;22394;-89
2023/02/15 21:00:06;;;;;;;122.00;60.40;;;;;;;-1.00;93.94;100085.73;273456;1270;23189;-89
2023/02/15 21:06:11;;;;;;;144.70;67.60;;;;;;;-1.00;94.14;100080.80;273739;1269;22353;-88
2023/02/15 21:12:14;;;;;;;185.60;84.20;;;;;;;-1.06;93.65;100077.52;273558;1270;22393;-88
2023/02/15 21:18:21;;;;;;;160.10;74.60;;;;;;;-1.17;93.69;100076.27;273340;1269;22236;-88
2023/02/15 21:24:25;;;;;;;145.80;70.40;;;;;;;-1.24;94.26;100080.42;272365;1270;234817;-88
2023/02/15 21:30:30;;;;;;;130.50;64.50;;;;;;;-1.32;94.04;100077.48;273291;1273;22441;-89
2023/02/15 21:36:33;;;;;;;119.50;55.90;;;;;;;-1.35;94.40;100072.48;271935;1273;22374;-88
2023/02/15 21:48:55;;;;;;;155.10;73.60;;;;;;;-1.41;94.85;100060.84;272554;1271;22553;-88
2023/02/15 21:54:56;;;;;;;167.70;77.30;;;;;;;-1.51;94.40;100060.85;272828;1272;22374;-89
2023/02/15 22:00:59;;;;;;;189.50;87.20;;;;;;;-1.62;94.57;100055.43;273381;1269;22321;-89
2023/02/15 22:07:01;;;;;;;172.90;83.30;;;;;;;-1.66;94.85;100049.48;273268;1273;22310;-89
2023/02/15 22:13:03;;;;;;;202.80;91.90;;;;;;;-1.72;94.92;100051.04;273416;1270;22217;-90
2023/02/15 22:19:09;;;;;;;219.10;99.00;;;;;;;-1.73;95.23;100057.05;270327;1270;22529;-88
2023/02/15 22:25:15;;;;;;;;;;;;;;;-1.77;95.37;100054.48;269775;1270;22546;-89
2023/02/15 22:31:21;;;;;;;214.80;98.30;;;;;;;-1.81;95.64;100044.61;269421;1270;22663;-89
2023/02/15 22:37:23;;;;;;;184.20;85.80;;;;;;;-1.87;95.98;100048.69;270544;1273;22542;-88
2023/02/15 22:43:37;;;;;;;217.30;100.80;;;;;;;-1.89;96.08;100041.49;272478;1271;22360;-89
2023/02/15 22:49:38;;;;;;;211.60;100.00;;;;;;;-1.93;95.91;100033.44;273525;1270;22346;-90
2023/02/15 22:55:40;;;;;;;197.40;90.50;;;;;;;-1.93;96.28;100027.42;273380;1269;22387;-88
2023/02/15 23:01:42;;;;;;;177.20;86.00;;;;;;;-1.94;96.51;100024.46;273459;1273;22657;-89
2023/02/15 23:07:45;;;;;;;191.90;88.60;;;;;;;-1.94;96.55;100022.27;273488;1269;22373;-88
2023/02/15 23:13:48;;;;;;;167.40;82.10;;;;;;;-1.93;96.67;100020.06;272164;1261;22352;-89
2023/02/15 23:19:50;;;;;;;193.60;89.00;;;;;;;-1.97;96.42;100017.98;273386;1270;22212;-88
2023/02/15 23:25:52;;;;;;;167.50;80.10;;;;;;;-2.04;96.48;100022.02;273625;1270;22798;-88
2023/02/15 23:31:54;;;;;;;160.60;75.10;;;;;;;-2.08;96.76;100022.43;273612;1270;22440;-88
2023/02/15 23:37:55;;;;;;;156.00;72.30;;;;;;;-2.09;96.75;100017.81;273519;1272;22243;-89
2023/02/15 23:43:59;;;;;;;147.80;69.70;;;;;;;-2.10;96.82;100015.23;273661;1270;22354;-87
2023/02/15 23:50:01;;;;;;;177.30;78.40;;;;;;;-2.12;96.84;100012.61;273388;1269;22231;-88
2023/02/15 23:56:03;;;;;;;156.50;75.60;;;;;;;-2.17;96.90;100011.48;273479;1271;22348;-88
